Time,TemperatureF,DewpointF,PressureIn,WindDirection,WindDirectionDegrees,WindSpeedMPH,WindSpeedGustMPH,Humidity,HourlyPrecipIn,Conditions,Clouds,dailyrainin,SoftwareType,DateUTC
2013-02-16 00:00:00,24.8,18.0,30.12,NW,321,0.0,0.0,75,0.00,CLR,,0.00,WeatherDisplay:10.37,2013-02-16 05:00:00,
2013-02-16 00:05:00,24.8,18.0,30.12,NW,321,0.0,0.0,75,0.00,CLR,,0.00,WeatherDisplay:10.37,2013-02-16 05:05:00,
2013-02-16 00:10:00,24.7,17.9,30.12,NW,321,0.0,0.0,75,0.00,CLR,,0.00,WeatherDisplay:10.37,2013-02-16 05:10:00,
2013-02-16 00:15:00,24.8,18.3,30.12,NW,321,0.0,0.0,76,0.00,CLR,,0.00,WeatherDisplay:10.37,2013-02-16 05:15:00,
2013-02-16 00:20:00,24.7,17.9,30.12,NW,321,0.0,0.0,75,0.00,CLR,,0.00,WeatherDisplay:10.37,2013-02-16 05:20:00,
2013-02-16 00:23:00,24.6,17.8,30.12,NW,321,0.0,0.0,75,0.00,CLR,,0.00,WeatherDisplay:10.37,2013-02-16 05:23:00,
2013-02-16 00:28:00,24.4,17.6,30.12,NW,321,0.0,0.0,75,0.00,CLR,,0.00,WeatherDisplay:10.37,2013-02-16 05:28:00,
2013-02-16 00:33:00,24.3,17.8,30.12,NW,321,0.0,0.0,76,0.00,CLR,,0.00,WeatherDisplay:10.37,2013-02-16 05:33:00,
2013-02-16 00:38:00,24.3,17.8,30.12,NW,321,0.0,0.0,76,0.00,CLR,,0.00,WeatherDisplay:10.37,2013-02-16 05:38:00,
2013-02-16 00:43:00,24.2,17.7,30.11,NW,321,0.0,0.0,76,0.00,CLR,,0.00,WeatherDisplay:10.37,2013-02-16 05:43:00,
2013-02-16 00:48:00,24.2,17.7,30.11,NW,321,0.0,0.0,76,0.00,CLR,,0.00,WeatherDisplay:10.37,2013-02-16 05:48:00,
2013-02-16 00:53:00,24.1,17.6,30.11,NW,321,0.0,0.0,76,0.00,CLR,,0.00,WeatherDisplay:10.37,2013-02-16 05:53:00,
2013-02-16 00:58:00,24.0,17.8,30.11,NW,321,0.0,0.0,77,0.00,CLR,,0.00,WeatherDisplay:10.37,2013-02-16 05:58:00,
2013-02-16 01:03:00,23.9,17.7,30.11,NW,321,0.0,0.0,77,0.00,CLR,,0.00,WeatherDisplay:10.37,2013-02-16 06:03:00,
2013-02-16 01:08:00,23.8,17.6,30.11,NW,321,0.0,0.0,77,0.00,CLR,,0.00,WeatherDisplay:10.37,2013-02-16 06:08:00,
2013-02-16 01:13:00,23.8,17.6,30.11,NW,321,0.0,0.0,77,0.00,CLR,,0.00,WeatherDisplay:10.37,2013-02-16 06:13:00,
2013-02-16 01:18:00,23.8,17.9,30.11,NW,321,0.0,0.0,78,0.00,CLR,,0.00,WeatherDisplay:10.37,2013-02-16 06:18:00,
2013-02-16 01:23:00,23.8,18.2,30.11,NW,321,0.0,0.0,79,0.00,CLR,,0.00,WeatherDisplay:10.37,2013-02-16 06:23:00,
2013-02-16 01:28:00,23.8,18.2,30.10,NW,321,0.0,0.0,79,0.00,CLR,,0.00,WeatherDisplay:10.37,2013-02-16 06:28:00,
2013-02-16 01:33:00,23.8,18.2,30.10,NW,321,0.0,0.0,79,0.00,CLR,,0.00,WeatherDisplay:10.37,2013-02-16 06:33:00,
2013-02-16 01:38:00,23.7,18.4,30.10,NW,321,0.0,0.0,80,0.00,CLR,,0.00,WeatherDisplay:10.37,2013-02-16 06:38:00,
2013-02-16 01:43:00,23.5,18.2,30.10,NW,321,0.0,0.0,80,0.00,CLR,,0.00,WeatherDisplay:10.37,2013-02-16 06:43:00,
2013-02-16 01:48:00,23.4,18.4,30.10,NW,321,0.0,0.0,81,0.00,CLR,,0.00,WeatherDisplay:10.37,2013-02-16 06:48:00,
2013-02-16 01:53:00,23.2,18.2,30.10,NW,321,0.0,0.0,81,0.00,CLR,,0.00,WeatherDisplay:10.37,2013-02-16 06:53:00,
2013-02-16 01:58:00,23.0,18.0,30.10,NW,321,0.0,0.0,81,0.00,CLR,,0.00,WeatherDisplay:10.37,2013-02-16 06:58:00,
2013-02-16 02:03:00,22.9,17.9,30.10,NW,321,0.0,0.0,81,0.00,CLR,,0.00,WeatherDisplay:10.37,2013-02-16 07:03:00,
2013-02-16 02:08:00,22.8,18.1,30.10,NW,321,0.0,0.0,82,0.00,CLR,,0.00,WeatherDisplay:10.37,2013-02-16 07:08:00,
2013-02-16 02:13:00,22.7,18.3,30.10,NW,321,0.0,0.0,83,0.00,CLR,,0.00,WeatherDisplay:10.37,2013-02-16 07:13:00,
2013-02-16 02:18:00,22.7,18.3,30.09,NW,321,0.0,0.0,83,0.00,CLR,,0.00,WeatherDisplay:10.37,2013-02-16 07:18:00,
2013-02-16 02:23:00,22.7,18.3,30.09,NW,321,0.0,0.0,83,0.00,CLR,,0.00,WeatherDisplay:10.37,2013-02-16 07:23:00,
2013-02-16 02:28:00,22.8,18.4,30.09,NW,321,0.0,0.0,83,0.00,CLR,,0.00,WeatherDisplay:10.37,2013-02-16 07:28:00,
2013-02-16 02:33:00,22.8,18.7,30.09,NW,321,0.0,0.0,84,0.00,CLR,,0.00,WeatherDisplay:10.37,2013-02-16 07:33:00,
2013-02-16 02:38:00,22.9,18.8,30.09,NW,321,0.0,0.0,84,0.00,CLR,,0.00,WeatherDisplay:10.37,2013-02-16 07:38:00,
2013-02-16 02:43:00,23.0,19.2,30.09,NW,321,0.0,0.0,85,0.00,CLR,,0.00,WeatherDisplay:10.37,2013-02-16 07:43:00,
2013-02-16 02:48:00,23.1,19.3,30.09,NW,321,0.0,0.0,85,0.00,CLR,,0.00,WeatherDisplay:10.37,2013-02-16 07:48:00,
2013-02-16 02:53:00,23.4,19.6,30.09,NW,325,0.0,1.1,85,0.00,CLR,,0.00,WeatherDisplay:10.37,2013-02-16 07:53:00,
2013-02-16 02:58:00,23.5,19.4,30.09,NW,325,0.0,0.0,84,0.00,CLR,,0.00,WeatherDisplay:10.37,2013-02-16 07:58:00,
2013-02-16 03:03:00,23.7,19.3,30.09,NW,325,0.0,0.0,83,0.00,CLR,,0.00,WeatherDisplay:10.37,2013-02-16 08:03:00,
2013-02-16 03:08:00,23.9,19.5,30.09,NNW,328,0.6,3.5,83,0.00,CLR,,0.00,WeatherDisplay:10.37,2013-02-16 08:08:00,
2013-02-16 03:13:00,24.0,19.9,30.09,NW,321,0.9,3.5,84,0.00,CLR,,0.00,WeatherDisplay:10.37,2013-02-16 08:13:00,
2013-02-16 03:18:00,23.9,20.0,30.09,NW,321,0.0,0.0,85,0.00,CLR,,0.00,WeatherDisplay:10.37,2013-02-16 08:18:00,
2013-02-16 03:23:00,23.8,19.9,30.09,NW,321,1.9,3.5,85,0.00,CLR,,0.00,WeatherDisplay:10.37,2013-02-16 08:23:00,
2013-02-16 03:28:00,23.7,20.1,30.09,NW,321,1.3,2.3,86,0.00,CLR,,0.00,WeatherDisplay:10.37,2013-02-16 08:28:00,
2013-02-16 03:33:00,23.6,20.0,30.09,NW,321,0.8,3.5,86,0.00,CLR,,0.00,WeatherDisplay:10.37,2013-02-16 08:33:00,
2013-02-16 03:38:00,23.5,20.2,30.09,NW,317,0.7,1.0,87,0.00,CLR,,0.00,WeatherDisplay:10.37,2013-02-16 08:38:00,
2013-02-16 03:43:00,23.3,20.0,30.08,NW,311,0.3,3.5,87,0.00,CLR,,0.00,WeatherDisplay:10.37,2013-02-16 08:43:00,
2013-02-16 03:48:00,23.2,19.9,30.08,NW,304,0.4,3.5,87,0.00,CLR,,0.00,WeatherDisplay:10.37,2013-02-16 08:48:00,
2013-02-16 03:53:00,23.1,19.8,30.08,WNW,302,0.2,2.0,87,0.00,CLR,,0.00,WeatherDisplay:10.37,2013-02-16 08:53:00,
2013-02-16 03:58:00,23.0,21.8,30.08,NW,310,0.0,0.0,95,0.00,CLR,,0.00,WeatherDisplay:10.37,2013-02-16 08:58:00,
2013-02-16 04:03:00,22.9,19.6,30.08,NW,310,0.0,3.5,87,0.00,CLR,,0.00,WeatherDisplay:10.37,2013-02-16 09:03:00,
2013-02-16 04:08:00,22.9,19.6,30.08,WNW,301,0.6,3.5,87,0.00,CLR,,0.00,WeatherDisplay:10.37,2013-02-16 09:08:00,
2013-02-16 04:13:00,22.8,19.5,30.08,WNW,302,0.0,0.0,87,0.00,CLR,,0.00,WeatherDisplay:10.37,2013-02-16 09:13:00,
2013-02-16 04:18:00,22.8,19.5,30.08,WNW,282,0.2,3.0,87,0.00,CLR,,0.00,WeatherDisplay:10.37,2013-02-16 09:18:00,
2013-02-16 04:23:00,22.7,19.4,30.08,WNW,296,0.7,2.3,87,0.00,CLR,,0.00,WeatherDisplay:10.37,2013-02-16 09:23:00,
2013-02-16 04:28:00,22.7,19.4,30.08,WNW,287,0.6,2.0,87,0.00,CLR,,0.00,WeatherDisplay:10.37,2013-02-16 09:28:00,
2013-02-16 04:33:00,22.7,19.4,30.08,WNW,288,0.0,0.0,87,0.00,CLR,,0.00,WeatherDisplay:10.37,2013-02-16 09:33:00,
2013-02-16 04:38:00,22.5,19.2,30.08,WNW,291,0.0,3.5,87,0.00,CLR,,0.00,WeatherDisplay:10.37,2013-02-16 09:38:00,
2013-02-16 04:43:00,22.4,19.1,30.08,WNW,288,0.1,3.5,87,0.00,CLR,,0.00,WeatherDisplay:10.37,2013-02-16 09:43:00,
2013-02-16 04:48:00,22.3,19.0,30.08,WNW,292,0.1,2.0,87,0.00,CLR,,0.00,WeatherDisplay:10.37,2013-02-16 09:48:00,
2013-02-16 04:53:00,22.2,18.7,30.08,WNW,290,0.4,3.5,86,0.00,CLR,,0.00,WeatherDisplay:10.37,2013-02-16 09:53:00,
2013-02-16 04:58:00,22.0,18.5,30.07,WNW,296,0.4,3.5,86,0.00,CLR,,0.00,WeatherDisplay:10.37,2013-02-16 09:58:00,
2013-02-16 05:03:00,21.8,18.0,30.08,WNW,288,0.5,3.5,85,0.00,CLR,,0.00,WeatherDisplay:10.37,2013-02-16 10:03:00,
2013-02-16 05:08:00,21.7,17.9,30.08,WNW,289,0.0,0.0,85,0.00,CLR,,0.00,WeatherDisplay:10.37,2013-02-16 10:08:00,
2013-02-16 05:13:00,21.5,19.5,30.08,WNW,284,0.1,3.5,92,0.00,CLR,,0.00,WeatherDisplay:10.37,2013-02-16 10:13:00,
2013-02-16 05:18:00,21.3,17.2,30.08,WNW,282,0.0,2.3,84,0.00,CLR,,0.00,WeatherDisplay:10.37,2013-02-16 10:18:00,
2013-02-16 05:23:00,21.2,17.1,30.08,West,281,0.0,0.0,84,0.00,CLR,,0.00,WeatherDisplay:10.37,2013-02-16 10:23:00,
2013-02-16 05:28:00,21.0,16.9,30.08,West,270,1.0,2.0,84,0.00,CLR,,0.00,WeatherDisplay:10.37,2013-02-16 10:28:00,
2013-02-16 05:33:00,20.9,16.8,30.08,West,270,0.0,0.0,84,0.00,CLR,,0.00,WeatherDisplay:10.37,2013-02-16 10:33:00,
2013-02-16 05:38:00,20.7,16.6,30.08,West,269,0.0,1.1,84,0.00,CLR,,0.00,WeatherDisplay:10.37,2013-02-16 10:38:00,
2013-02-16 05:43:00,20.5,16.4,30.08,West,269,0.0,1.1,84,0.00,CLR,,0.00,WeatherDisplay:10.37,2013-02-16 10:43:00,
2013-02-16 05:48:00,20.3,16.2,30.08,West,269,0.0,0.0,84,0.00,CLR,,0.00,WeatherDisplay:10.37,2013-02-16 10:48:00,
2013-02-16 05:53:00,20.2,16.1,30.08,West,267,0.0,0.0,84,0.00,CLR,,0.00,WeatherDisplay:10.37,2013-02-16 10:53:00,
2013-02-16 05:58:00,19.9,15.6,30.08,West,267,0.2,3.5,83,0.00,CLR,,0.00,WeatherDisplay:10.37,2013-02-16 10:58:00,
2013-02-16 06:03:00,19.7,15.4,30.08,West,267,0.1,0.0,83,0.00,CLR,,0.00,WeatherDisplay:10.37,2013-02-16 11:03:00,
2013-02-16 06:08:00,19.7,15.4,30.08,West,267,0.0,0.0,83,0.00,CLR,,0.00,WeatherDisplay:10.37,2013-02-16 11:08:00,
2013-02-16 06:13:00,19.6,15.3,30.08,West,266,0.0,0.0,83,0.00,CLR,,0.00,WeatherDisplay:10.37,2013-02-16 11:13:00,
2013-02-16 06:18:00,19.5,15.2,30.08,West,265,0.0,0.0,83,0.00,CLR,,0.00,WeatherDisplay:10.37,2013-02-16 11:18:00,
2013-02-16 06:23:00,19.4,16.9,30.08,West,265,0.0,0.0,90,0.00,CLR,,0.00,WeatherDisplay:10.37,2013-02-16 11:23:00,
2013-02-16 06:28:00,19.3,14.7,30.08,WNW,283,0.4,3.5,82,0.00,CLR,,0.00,WeatherDisplay:10.37,2013-02-16 11:28:00,
2013-02-16 06:33:00,19.1,14.5,30.08,West,280,0.0,1.1,82,0.00,CLR,,0.00,WeatherDisplay:10.37,2013-02-16 11:33:00,
2013-02-16 06:38:00,19.0,14.4,30.08,West,280,0.2,0.0,82,0.00,CLR,,0.00,WeatherDisplay:10.37,2013-02-16 11:38:00,
2013-02-16 06:43:00,18.9,14.3,30.08,West,264,0.2,3.5,82,0.00,CLR,,0.00,WeatherDisplay:10.37,2013-02-16 11:43:00,
2013-02-16 06:48:00,18.8,14.5,30.08,West,263,0.3,1.1,83,0.00,CLR,,0.00,WeatherDisplay:10.37,2013-02-16 11:48:00,
2013-02-16 06:53:00,18.8,14.5,30.08,WNW,296,0.8,2.0,83,0.00,CLR,,0.00,WeatherDisplay:10.37,2013-02-16 11:53:00,
2013-02-16 06:58:00,18.8,14.5,30.08,West,267,1.0,4.0,83,0.00,CLR,,0.00,WeatherDisplay:10.37,2013-02-16 11:58:00,
2013-02-16 07:03:00,18.8,14.5,30.08,WNW,293,0.0,0.0,83,0.00,CLR,,0.00,WeatherDisplay:10.37,2013-02-16 12:03:00,
2013-02-16 07:08:00,18.8,14.5,30.08,WNW,282,0.0,2.3,83,0.00,CLR,,0.00,WeatherDisplay:10.37,2013-02-16 12:08:00,
2013-02-16 07:13:00,18.7,14.4,30.08,NW,306,0.0,0.0,83,0.00,CLR,,0.00,WeatherDisplay:10.37,2013-02-16 12:13:00,
2013-02-16 07:18:00,18.6,14.3,30.08,WNW,290,0.0,4.6,83,0.00,CLR,,0.00,WeatherDisplay:10.37,2013-02-16 12:18:00,
2013-02-16 07:23:00,18.6,14.3,30.09,WNW,296,1.9,5.8,83,0.00,CLR,,0.00,WeatherDisplay:10.37,2013-02-16 12:23:00,
2013-02-16 07:28:00,18.6,14.3,30.09,West,281,0.8,4.0,83,0.00,CLR,,0.00,WeatherDisplay:10.37,2013-02-16 12:28:00,
2013-02-16 07:33:00,18.5,13.9,30.09,West,281,1.0,4.6,82,0.00,CLR,,0.00,WeatherDisplay:10.37,2013-02-16 12:33:00,
2013-02-16 07:38:00,18.5,14.2,30.09,WNW,293,1.5,3.5,83,0.00,CLR,,0.00,WeatherDisplay:10.37,2013-02-16 12:38:00,
2013-02-16 07:43:00,18.4,14.1,30.09,West,272,0.7,5.8,83,0.00,CLR,,0.00,WeatherDisplay:10.37,2013-02-16 12:43:00,
2013-02-16 07:48:00,18.4,13.8,30.09,WNW,289,1.5,4.6,82,0.00,CLR,,0.00,WeatherDisplay:10.37,2013-02-16 12:48:00,
2013-02-16 07:53:00,18.4,13.8,30.09,West,276,1.6,4.6,82,0.00,CLR,,0.00,WeatherDisplay:10.37,2013-02-16 12:53:00,
2013-02-16 07:58:00,18.3,13.7,30.09,WNW,296,1.1,4.0,82,0.00,CLR,,0.00,WeatherDisplay:10.37,2013-02-16 12:58:00,
2013-02-16 08:03:00,18.3,13.7,30.09,WNW,299,1.3,3.0,82,0.00,CLR,,0.00,WeatherDisplay:10.37,2013-02-16 13:03:00,
2013-02-16 08:08:00,18.2,13.6,30.09,WNW,295,1.1,3.5,82,0.00,CLR,,0.00,WeatherDisplay:10.37,2013-02-16 13:08:00,
2013-02-16 08:13:00,18.2,13.6,30.10,WNW,288,2.9,4.6,82,0.00,CLR,,0.00,WeatherDisplay:10.37,2013-02-16 13:13:00,
2013-02-16 08:18:00,18.3,13.7,30.09,WNW,288,1.4,3.5,82,0.00,CLR,,0.00,WeatherDisplay:10.37,2013-02-16 13:18:00,
2013-02-16 08:23:00,18.4,13.8,30.09,WNW,297,1.6,4.6,82,0.00,CLR,,0.00,WeatherDisplay:10.37,2013-02-16 13:23:00,
2013-02-16 08:28:00,18.5,13.9,30.10,WNW,296,1.1,3.5,82,0.00,CLR,,0.00,WeatherDisplay:10.37,2013-02-16 13:28:00,
2013-02-16 08:33:00,18.6,14.0,30.10,NW,308,0.1,3.5,82,0.00,CLR,,0.00,WeatherDisplay:10.37,2013-02-16 13:33:00,
2013-02-16 08:38:00,18.6,14.0,30.09,WNW,286,1.9,6.9,82,0.00,CLR,,0.00,WeatherDisplay:10.37,2013-02-16 13:38:00,
2013-02-16 08:43:00,18.6,13.7,30.10,WNW,283,0.7,4.6,81,0.00,CLR,,0.00,WeatherDisplay:10.37,2013-02-16 13:43:00,
2013-02-16 08:48:00,18.6,14.0,30.10,WNW,290,2.1,5.8,82,0.00,CLR,,0.00,WeatherDisplay:10.37,2013-02-16 13:48:00,
2013-02-16 08:53:00,18.8,13.9,30.10,WNW,290,3.3,4.6,81,0.00,CLR,,0.00,WeatherDisplay:10.37,2013-02-16 13:53:00,
2013-02-16 08:58:00,19.0,14.1,30.10,NW,305,3.1,6.9,81,0.00,CLR,,0.00,WeatherDisplay:10.37,2013-02-16 13:58:00,
2013-02-16 09:03:00,19.2,14.3,30.10,WNW,292,3.8,11.5,81,0.00,CLR,,0.00,WeatherDisplay:10.37,2013-02-16 14:03:00,
2013-02-16 09:08:00,19.3,14.1,30.10,WNW,283,3.3,10.4,80,0.00,CLR,,0.00,WeatherDisplay:10.37,2013-02-16 14:08:00,
2013-02-16 09:13:00,19.3,14.1,30.10,WNW,290,2.6,10.4,80,0.00,CLR,,0.00,WeatherDisplay:10.37,2013-02-16 14:13:00,
2013-02-16 09:18:00,19.3,14.1,30.10,WNW,296,1.3,6.0,80,0.00,CLR,,0.00,WeatherDisplay:10.37,2013-02-16 14:18:00,
2013-02-16 09:23:00,19.4,14.2,30.10,WNW,289,3.9,4.0,80,0.00,CLR,,0.00,WeatherDisplay:10.37,2013-02-16 14:23:00,
2013-02-16 09:28:00,19.4,15.9,30.10,NW,312,0.2,1.1,86,0.00,CLR,,0.00,WeatherDisplay:10.37,2013-02-16 14:28:00,
2013-02-16 09:33:00,19.5,14.0,30.10,WNW,298,2.7,6.9,79,0.00,CLR,,0.00,WeatherDisplay:10.37,2013-02-16 14:33:00,
2013-02-16 09:38:00,19.7,14.2,30.10,West,274,4.7,10.4,79,0.00,CLR,,0.00,WeatherDisplay:10.37,2013-02-16 14:38:00,
2013-02-16 09:43:00,19.8,14.0,30.10,West,276,4.3,5.8,78,0.00,CLR,,0.00,WeatherDisplay:10.37,2013-02-16 14:43:00,
2013-02-16 09:48:00,20.0,13.6,30.10,West,279,7.6,16.1,76,0.00,CLR,,0.00,WeatherDisplay:10.37,2013-02-16 14:48:00,
2013-02-16 09:53:00,20.1,13.7,30.10,NW,319,4.5,9.2,76,0.00,CLR,,0.00,WeatherDisplay:10.37,2013-02-16 14:53:00,
2013-02-16 09:58:00,20.4,14.3,30.10,WNW,302,0.3,4.0,77,0.00,CLR,,0.00,WeatherDisplay:10.37,2013-02-16 14:58:00,
2013-02-16 10:03:00,20.6,13.9,30.10,NNW,337,6.2,12.7,75,0.00,CLR,,0.00,WeatherDisplay:10.37,2013-02-16 15:03:00,
2013-02-16 10:08:00,20.8,14.1,30.10,West,261,3.7,9.0,75,0.00,CLR,,0.00,WeatherDisplay:10.37,2013-02-16 15:08:00,
2013-02-16 10:13:00,21.0,14.3,30.10,West,279,3.2,5.8,75,0.00,CLR,,0.00,WeatherDisplay:10.37,2013-02-16 15:13:00,
2013-02-16 10:18:00,20.9,13.9,30.10,WNW,286,7.4,12.7,74,0.00,CLR,,0.00,WeatherDisplay:10.37,2013-02-16 15:18:00,
2013-02-16 10:23:00,20.6,13.3,30.10,West,270,3.1,10.4,73,0.00,CLR,,0.00,WeatherDisplay:10.37,2013-02-16 15:23:00,
2013-02-16 10:28:00,20.8,14.1,30.10,NW,311,2.9,4.0,75,0.00,CLR,,0.00,WeatherDisplay:10.37,2013-02-16 15:28:00,
2013-02-16 10:33:00,21.1,14.1,30.10,WNW,301,5.4,13.8,74,0.00,CLR,,0.00,WeatherDisplay:10.37,2013-02-16 15:33:00,
2013-02-16 10:38:00,21.2,13.9,30.10,NW,311,2.3,7.0,73,0.00,CLR,,0.00,WeatherDisplay:10.37,2013-02-16 15:38:00,
2013-02-16 10:43:00,20.9,13.3,30.10,WNW,294,5.7,12.0,72,0.00,CLR,,0.00,WeatherDisplay:10.37,2013-02-16 15:43:00,
2013-02-16 10:48:00,20.7,13.4,30.11,WNW,300,4.8,11.5,73,0.00,CLR,,0.00,WeatherDisplay:10.37,2013-02-16 15:48:00,
2013-02-16 10:53:00,20.3,13.0,30.10,WNW,288,6.2,10.4,73,0.00,CLR,,0.00,WeatherDisplay:10.37,2013-02-16 15:53:00,
2013-02-16 10:58:00,20.0,12.4,30.10,WSW,256,5.1,12.7,72,0.00,CLR,,0.00,WeatherDisplay:10.37,2013-02-16 15:58:00,
2013-02-16 11:03:00,19.7,12.1,30.11,WNW,298,3.0,6.9,72,0.00,CLR,,0.00,WeatherDisplay:10.37,2013-02-16 16:03:00,
2013-02-16 11:08:00,20.3,13.3,30.11,NW,309,0.5,4.6,74,0.00,CLR,,0.00,WeatherDisplay:10.37,2013-02-16 16:08:00,
2013-02-16 11:13:00,20.4,12.8,30.11,NW,313,3.2,10.4,72,0.00,CLR,,0.00,WeatherDisplay:10.37,2013-02-16 16:13:00,
2013-02-16 11:18:00,20.4,12.5,30.11,WNW,296,5.5,9.2,71,0.00,CLR,,0.00,WeatherDisplay:10.37,2013-02-16 16:18:00,
2013-02-16 11:23:00,20.4,12.5,30.10,West,274,2.0,9.2,71,0.00,CLR,,0.00,WeatherDisplay:10.37,2013-02-16 16:23:00,
2013-02-16 11:28:00,20.4,12.2,30.11,West,263,4.0,7.0,70,0.00,CLR,,0.00,WeatherDisplay:10.37,2013-02-16 16:28:00,
2013-02-16 11:33:00,20.4,12.2,30.10,NW,304,5.8,11.5,70,0.00,CLR,,0.00,WeatherDisplay:10.37,2013-02-16 16:33:00,
2013-02-16 11:38:00,20.3,12.1,30.11,NW,325,2.6,11.5,70,0.00,CLR,,0.00,WeatherDisplay:10.37,2013-02-16 16:38:00,
2013-02-16 11:43:00,20.6,12.4,30.11,West,278,2.7,4.6,70,0.00,CLR,,0.00,WeatherDisplay:10.37,2013-02-16 16:43:00,
2013-02-16 11:48:00,20.7,12.1,30.11,WNW,288,2.7,5.8,69,0.00,CLR,,0.00,WeatherDisplay:10.37,2013-02-16 16:48:00,
2013-02-16 11:53:00,20.6,12.0,30.11,NW,306,3.9,10.0,69,0.00,CLR,,0.00,WeatherDisplay:10.37,2013-02-16 16:53:00,
2013-02-16 11:58:00,20.3,12.1,30.11,NW,314,8.3,12.7,70,0.00,CLR,,0.00,WeatherDisplay:10.37,2013-02-16 16:58:00,
2013-02-16 12:03:00,20.0,12.4,30.11,WNW,294,5.1,11.5,72,0.00,CLR,,0.00,WeatherDisplay:10.37,2013-02-16 17:03:00,
2013-02-16 12:08:00,19.9,12.3,30.11,WNW,300,3.8,5.8,72,0.00,CLR,,0.00,WeatherDisplay:10.37,2013-02-16 17:08:00,
2013-02-16 12:13:00,20.0,12.7,30.11,WNW,285,2.7,5.8,73,0.00,CLR,,0.00,WeatherDisplay:10.37,2013-02-16 17:13:00,
2013-02-16 12:18:00,20.1,12.5,30.11,WNW,292,2.2,11.5,72,0.00,CLR,,0.00,WeatherDisplay:10.37,2013-02-16 17:18:00,
2013-02-16 12:23:00,20.3,12.7,30.10,NW,306,3.0,15.0,72,0.00,CLR,,0.00,WeatherDisplay:10.37,2013-02-16 17:23:00,
2013-02-16 12:28:00,20.7,13.1,30.11,NW,306,3.5,14.0,72,0.00,CLR,,0.00,WeatherDisplay:10.37,2013-02-16 17:28:00,
2013-02-16 12:33:00,20.5,12.6,30.10,NW,305,2.6,9.2,71,0.00,CLR,,0.00,WeatherDisplay:10.37,2013-02-16 17:33:00,
2013-02-16 12:38:00,20.7,12.8,30.10,WNW,296,3.3,11.5,71,0.00,CLR,,0.00,WeatherDisplay:10.37,2013-02-16 17:38:00,
2013-02-16 12:43:00,20.9,12.6,30.10,NW,317,6.2,13.8,70,0.00,CLR,,0.00,WeatherDisplay:10.37,2013-02-16 17:43:00,
2013-02-16 12:48:00,20.9,12.3,30.09,WSW,250,4.1,4.6,69,0.00,CLR,,0.00,WeatherDisplay:10.37,2013-02-16 17:48:00,
2013-02-16 12:53:00,21.1,12.2,30.10,NW,306,2.7,16.1,68,0.00,CLR,,0.00,WeatherDisplay:10.37,2013-02-16 17:53:00,
2013-02-16 12:58:00,20.9,11.7,30.10,WNW,283,4.0,9.2,67,0.00,CLR,,0.00,WeatherDisplay:10.37,2013-02-16 17:58:00,
2013-02-16 13:03:00,21.0,11.8,30.10,NW,310,8.1,17.3,67,0.00,CLR,,0.00,WeatherDisplay:10.37,2013-02-16 18:03:00,
2013-02-16 13:08:00,21.1,11.8,30.09,WSW,248,4.8,4.8,67,0.00,CLR,,0.00,WeatherDisplay:10.37,2013-02-16 18:08:00,
2013-02-16 13:13:00,21.5,12.2,30.09,West,267,4.6,8.1,67,0.00,CLR,,0.00,WeatherDisplay:10.37,2013-02-16 18:13:00,
2013-02-16 13:18:00,21.8,12.2,30.09,NW,326,2.2,5.0,66,0.00,CLR,,0.00,WeatherDisplay:10.37,2013-02-16 18:18:00,
2013-02-16 13:23:00,21.4,11.1,30.09,WSW,256,2.7,9.2,64,0.00,CLR,,0.00,WeatherDisplay:10.37,2013-02-16 18:23:00,
2013-02-16 13:28:00,21.5,11.5,30.09,NW,321,8.8,18.4,65,0.00,CLR,,0.00,WeatherDisplay:10.37,2013-02-16 18:28:00,
2013-02-16 13:33:00,21.2,10.9,30.09,WNW,302,5.4,15.0,64,0.00,CLR,,0.00,WeatherDisplay:10.37,2013-02-16 18:33:00,
2013-02-16 13:38:00,20.8,10.2,30.09,NW,314,4.4,13.8,63,0.00,CLR,,0.00,WeatherDisplay:10.37,2013-02-16 18:38:00,
2013-02-16 13:43:00,20.8,10.5,30.09,NNW,339,7.3,16.1,64,0.00,CLR,,0.00,WeatherDisplay:10.37,2013-02-16 18:43:00,
2013-02-16 13:48:00,20.9,10.3,30.09,NW,314,5.6,12.7,63,0.00,CLR,,0.00,WeatherDisplay:10.37,2013-02-16 18:48:00,
2013-02-16 13:53:00,21.1,10.8,30.09,NW,321,3.9,5.8,64,0.00,CLR,,0.00,WeatherDisplay:10.37,2013-02-16 18:53:00,
2013-02-16 13:58:00,21.2,10.6,30.09,NW,318,5.5,18.4,63,0.00,CLR,,0.00,WeatherDisplay:10.37,2013-02-16 18:58:00,
2013-02-16 14:03:00,21.1,10.1,30.09,WNW,291,5.6,11.5,62,0.00,CLR,,0.00,WeatherDisplay:10.37,2013-02-16 19:03:00,
2013-02-16 14:08:00,20.9,9.5,30.09,NW,304,12.4,15.0,61,0.00,CLR,,0.00,WeatherDisplay:10.37,2013-02-16 19:08:00,
2013-02-16 14:13:00,20.5,9.5,30.10,NW,306,6.1,13.8,62,0.00,CLR,,0.00,WeatherDisplay:10.37,2013-02-16 19:13:00,
2013-02-16 14:18:00,20.3,9.3,30.10,WNW,284,7.1,15.0,62,0.00,CLR,,0.00,WeatherDisplay:10.37,2013-02-16 19:18:00,
2013-02-16 14:23:00,20.4,9.8,30.10,NW,319,6.1,6.1,63,0.00,CLR,,0.00,WeatherDisplay:10.37,2013-02-16 19:23:00,
2013-02-16 14:28:00,20.2,10.0,30.10,NW,326,5.8,10.4,64,0.00,CLR,,0.00,WeatherDisplay:10.37,2013-02-16 19:28:00,
2013-02-16 14:33:00,19.9,9.3,30.10,WNW,288,3.5,18.4,63,0.00,CLR,,0.00,WeatherDisplay:10.37,2013-02-16 19:33:00,
2013-02-16 14:38:00,19.7,8.8,30.10,NNW,333,4.7,12.7,62,0.00,CLR,,0.00,WeatherDisplay:10.37,2013-02-16 19:38:00,
2013-02-16 14:43:00,19.7,7.3,30.10,WNW,298,3.8,6.9,58,0.00,CLR,,0.00,WeatherDisplay:10.37,2013-02-16 19:43:00,
2013-02-16 14:48:00,20.1,8.1,30.10,WNW,290,4.3,7.0,59,0.00,CLR,,0.00,WeatherDisplay:10.37,2013-02-16 19:48:00,
2013-02-16 14:53:00,20.1,9.2,30.10,West,273,4.5,6.0,62,0.00,CLR,,0.00,WeatherDisplay:10.37,2013-02-16 19:53:00,
2013-02-16 14:58:00,19.9,10.0,30.10,NW,310,6.7,10.4,65,0.00,CLR,,0.00,WeatherDisplay:10.37,2013-02-16 19:58:00,
2013-02-16 15:03:00,20.1,10.2,30.10,WNW,295,5.8,10.0,65,0.00,CLR,,0.00,WeatherDisplay:10.37,2013-02-16 20:03:00,
2013-02-16 15:08:00,19.8,10.3,30.10,NNW,335,12.3,16.1,66,0.00,CLR,,0.00,WeatherDisplay:10.37,2013-02-16 20:08:00,
2013-02-16 15:13:00,19.6,10.7,30.10,NW,309,9.7,21.9,68,0.00,CLR,,0.00,WeatherDisplay:10.37,2013-02-16 20:13:00,
2013-02-16 15:18:00,19.0,11.5,30.10,NW,326,6.2,10.4,72,0.00,CLR,,0.00,WeatherDisplay:10.37,2013-02-16 20:18:00,
2013-02-16 15:23:00,18.7,12.4,30.10,NW,323,3.7,16.1,76,0.00,CLR,,0.00,WeatherDisplay:10.37,2013-02-16 20:23:00,
2013-02-16 15:28:00,18.8,11.9,30.10,WNW,293,11.0,11.0,74,0.00,CLR,,0.00,WeatherDisplay:10.37,2013-02-16 20:28:00,
2013-02-16 15:33:00,18.8,11.9,30.10,WNW,290,4.1,5.8,74,0.00,CLR,,0.00,WeatherDisplay:10.37,2013-02-16 20:33:00,
2013-02-16 15:38:00,18.8,11.6,30.10,WNW,290,2.1,3.5,73,0.00,CLR,,0.00,WeatherDisplay:10.37,2013-02-16 20:38:00,
2013-02-16 15:43:00,19.4,10.9,30.10,NNW,330,4.6,16.1,69,0.00,CLR,,0.00,WeatherDisplay:10.37,2013-02-16 20:43:00,
2013-02-16 15:48:00,19.3,9.1,30.10,West,275,5.3,12.7,64,0.00,CLR,,0.00,WeatherDisplay:10.37,2013-02-16 20:48:00,
2013-02-16 15:53:00,19.4,8.8,30.10,NNW,336,2.0,5.8,63,0.00,CLR,,0.00,WeatherDisplay:10.37,2013-02-16 20:53:00,
2013-02-16 15:58:00,19.7,8.4,30.10,WNW,302,3.0,11.5,61,0.00,CLR,,0.00,WeatherDisplay:10.37,2013-02-16 20:58:00,
2013-02-16 16:03:00,19.5,6.7,30.10,WNW,302,5.3,11.5,57,0.00,CLR,,0.00,WeatherDisplay:10.37,2013-02-16 21:03:00,
2013-02-16 16:08:00,19.7,6.9,30.10,NW,321,7.4,13.8,57,0.00,CLR,,0.00,WeatherDisplay:10.37,2013-02-16 21:08:00,
2013-02-16 16:13:00,19.7,6.9,30.10,West,274,2.8,11.5,57,0.00,CLR,,0.00,WeatherDisplay:10.37,2013-02-16 21:13:00,
2013-02-16 16:18:00,19.7,6.9,30.10,NNW,334,2.8,12.7,57,0.00,CLR,,0.00,WeatherDisplay:10.37,2013-02-16 21:18:00,
2013-02-16 16:23:00,19.7,7.3,30.11,West,266,4.5,15.0,58,0.00,CLR,,0.00,WeatherDisplay:10.37,2013-02-16 21:23:00,
2013-02-16 16:28:00,19.7,7.3,30.11,WNW,287,3.1,9.2,58,0.00,CLR,,0.00,WeatherDisplay:10.37,2013-02-16 21:28:00,
2013-02-16 16:33:00,19.6,7.2,30.11,NW,311,1.4,5.8,58,0.00,CLR,,0.00,WeatherDisplay:10.37,2013-02-16 21:33:00,
2013-02-16 16:38:00,19.7,7.3,30.10,WNW,300,5.5,10.4,58,0.00,CLR,,0.00,WeatherDisplay:10.37,2013-02-16 21:38:00,
2013-02-16 16:43:00,19.7,6.9,30.11,NW,315,2.9,10.4,57,0.00,CLR,,0.00,WeatherDisplay:10.37,2013-02-16 21:43:00,
2013-02-16 16:48:00,19.7,6.9,30.11,NW,311,2.3,5.8,57,0.00,CLR,,0.00,WeatherDisplay:10.37,2013-02-16 21:48:00,
2013-02-16 16:53:00,19.7,7.7,30.11,NNW,329,5.6,10.4,59,0.00,CLR,,0.00,WeatherDisplay:10.37,2013-02-16 21:53:00,
2013-02-16 16:58:00,19.7,8.0,30.11,NNW,336,2.7,7.0,60,0.00,CLR,,0.00,WeatherDisplay:10.37,2013-02-16 21:58:00,
2013-02-16 17:03:00,19.7,8.0,30.11,West,277,5.4,9.2,60,0.00,CLR,,0.00,WeatherDisplay:10.37,2013-02-16 22:03:00,
2013-02-16 17:08:00,19.9,7.5,30.11,NNW,334,3.9,15.0,58,0.00,CLR,,0.00,WeatherDisplay:10.37,2013-02-16 22:08:00,
2013-02-16 17:13:00,20.4,8.0,30.11,WNW,300,7.1,11.5,58,0.00,CLR,,0.00,WeatherDisplay:10.37,2013-02-16 22:13:00,
2013-02-16 17:18:00,20.4,8.0,30.11,NW,313,3.1,9.2,58,0.00,CLR,,0.00,WeatherDisplay:10.37,2013-02-16 22:18:00,
2013-02-16 17:23:00,20.3,7.9,30.11,NW,315,4.6,11.5,58,0.00,CLR,,0.00,WeatherDisplay:10.37,2013-02-16 22:23:00,
2013-02-16 17:28:00,20.0,7.6,30.11,West,275,4.8,6.0,58,0.00,CLR,,0.00,WeatherDisplay:10.37,2013-02-16 22:28:00,
2013-02-16 17:33:00,19.7,7.7,30.11,WNW,292,1.4,6.9,59,0.00,CLR,,0.00,WeatherDisplay:10.37,2013-02-16 22:33:00,
2013-02-16 17:38:00,19.7,8.0,30.11,NW,309,4.4,8.1,60,0.00,CLR,,0.00,WeatherDisplay:10.37,2013-02-16 22:38:00,
2013-02-16 17:43:00,19.4,8.5,30.11,NW,306,4.2,6.0,62,0.00,CLR,,0.00,WeatherDisplay:10.37,2013-02-16 22:43:00,
2013-02-16 17:48:00,19.1,9.3,30.12,WNW,296,6.3,6.3,65,0.00,CLR,,0.00,WeatherDisplay:10.37,2013-02-16 22:48:00,
2013-02-16 17:53:00,18.8,9.6,30.12,NW,313,2.0,5.8,67,0.00,CLR,,0.00,WeatherDisplay:10.37,2013-02-16 22:53:00,
2013-02-16 17:58:00,18.5,10.0,30.12,NW,316,0.7,3.0,69,0.00,CLR,,0.00,WeatherDisplay:10.37,2013-02-16 22:58:00,
2013-02-16 18:03:00,18.2,10.1,30.11,NNW,334,2.2,8.1,70,0.00,CLR,,0.00,WeatherDisplay:10.37,2013-02-16 23:03:00,
2013-02-16 18:08:00,18.1,10.3,30.11,NNW,339,1.8,2.3,71,0.00,CLR,,0.00,WeatherDisplay:10.37,2013-02-16 23:08:00,
2013-02-16 18:13:00,18.1,10.3,30.12,NNW,328,0.0,3.5,71,0.00,CLR,,0.00,WeatherDisplay:10.37,2013-02-16 23:13:00,
2013-02-16 18:18:00,17.9,10.1,30.12,WNW,293,3.5,3.5,71,0.00,CLR,,0.00,WeatherDisplay:10.37,2013-02-16 23:18:00,
2013-02-16 18:23:00,17.9,9.8,30.12,NW,315,1.5,3.5,70,0.00,CLR,,0.00,WeatherDisplay:10.37,2013-02-16 23:23:00,
2013-02-16 18:28:00,17.8,10.0,30.12,NW,323,0.4,4.6,71,0.00,CLR,,0.00,WeatherDisplay:10.37,2013-02-16 23:28:00,
2013-02-16 18:33:00,17.7,9.9,30.12,NW,320,0.1,5.8,71,0.00,CLR,,0.00,WeatherDisplay:10.37,2013-02-16 23:33:00,
2013-02-16 18:38:00,17.7,9.9,30.12,NW,319,0.0,0.0,71,0.00,CLR,,0.00,WeatherDisplay:10.37,2013-02-16 23:38:00,
2013-02-16 18:43:00,17.6,10.1,30.13,NW,306,0.7,3.5,72,0.00,CLR,,0.00,WeatherDisplay:10.37,2013-02-16 23:43:00,
2013-02-16 18:48:00,17.6,10.7,30.13,NW,320,4.8,6.9,74,0.00,CLR,,0.00,WeatherDisplay:10.37,2013-02-16 23:48:00,
2013-02-16 18:53:00,17.5,10.9,30.12,NW,324,0.5,3.5,75,0.00,CLR,,0.00,WeatherDisplay:10.37,2013-02-16 23:53:00,
2013-02-16 18:58:00,17.3,11.3,30.12,NNW,332,3.0,5.8,77,0.00,CLR,,0.00,WeatherDisplay:10.37,2013-02-16 23:58:00,
2013-02-16 19:03:00,17.3,11.3,30.13,NNW,333,0.0,0.0,77,0.00,CLR,,0.00,WeatherDisplay:10.37,2013-02-17 00:03:00,
2013-02-16 19:08:00,17.2,11.5,30.13,NNW,333,0.0,0.0,78,0.00,CLR,,0.00,WeatherDisplay:10.37,2013-02-17 00:08:00,
2013-02-16 19:13:00,17.1,11.4,30.13,NNW,333,0.0,0.0,78,0.00,CLR,,0.00,WeatherDisplay:10.37,2013-02-17 00:13:00,
2013-02-16 19:18:00,17.2,11.5,30.13,NNW,333,0.0,2.0,78,0.00,CLR,,0.00,WeatherDisplay:10.37,2013-02-17 00:18:00,
2013-02-16 19:23:00,17.2,11.5,30.13,NNW,333,1.9,2.3,78,0.00,CLR,,0.00,WeatherDisplay:10.37,2013-02-17 00:23:00,
2013-02-16 19:28:00,17.3,11.6,30.14,NNW,342,3.3,6.9,78,0.00,CLR,,0.00,WeatherDisplay:10.37,2013-02-17 00:28:00,
2013-02-16 19:33:00,17.5,11.8,30.14,NW,318,1.2,3.5,78,0.00,CLR,,0.00,WeatherDisplay:10.37,2013-02-17 00:33:00,
2013-02-16 19:38:00,17.6,11.6,30.14,NNW,330,1.5,6.9,77,0.00,CLR,,0.00,WeatherDisplay:10.37,2013-02-17 00:38:00,
2013-02-16 19:43:00,17.7,11.7,30.15,NW,324,1.5,2.0,77,0.00,CLR,,0.00,WeatherDisplay:10.37,2013-02-17 00:43:00,
2013-02-16 19:48:00,17.7,11.7,30.14,North,355,2.5,2.5,77,0.00,CLR,,0.00,WeatherDisplay:10.37,2013-02-17 00:48:00,
2013-02-16 19:53:00,17.6,11.9,30.14,North,360,1.8,3.5,78,0.00,CLR,,0.00,WeatherDisplay:10.37,2013-02-17 00:53:00,
2013-02-16 19:58:00,17.3,11.9,30.14,North,5,1.2,3.5,79,0.00,CLR,,0.00,WeatherDisplay:10.37,2013-02-17 00:58:00,
2013-02-16 20:03:00,17.1,12.0,30.15,North,11,0.4,3.5,80,0.00,CLR,,0.00,WeatherDisplay:10.37,2013-02-17 01:03:00,
2013-02-16 20:08:00,17.0,11.9,30.15,NNW,340,1.6,3.5,80,0.00,CLR,,0.00,WeatherDisplay:10.37,2013-02-17 01:08:00,
2013-02-16 20:13:00,16.8,12.0,30.14,North,5,0.0,0.0,81,0.00,CLR,,0.00,WeatherDisplay:10.37,2013-02-17 01:13:00,
2013-02-16 20:18:00,16.7,11.9,30.14,NNW,348,1.1,3.5,81,0.00,CLR,,0.00,WeatherDisplay:10.37,2013-02-17 01:18:00,
2013-02-16 20:23:00,16.7,12.2,30.15,NNW,348,1.1,3.5,82,0.00,CLR,,0.00,WeatherDisplay:10.37,2013-02-17 01:23:00,
2013-02-16 20:28:00,16.7,12.2,30.15,North,355,5.7,5.7,82,0.00,CLR,,0.00,WeatherDisplay:10.37,2013-02-17 01:28:00,
2013-02-16 20:33:00,16.8,12.0,30.15,North,350,2.2,6.0,81,0.00,CLR,,0.00,WeatherDisplay:10.37,2013-02-17 01:33:00,
2013-02-16 20:38:00,16.8,12.0,30.15,NNW,348,1.9,3.5,81,0.00,CLR,,0.00,WeatherDisplay:10.37,2013-02-17 01:38:00,
2013-02-16 20:43:00,16.8,12.0,30.14,North,350,0.0,3.5,81,0.00,CLR,,0.00,WeatherDisplay:10.37,2013-02-17 01:43:00,
2013-02-16 20:48:00,16.6,11.8,30.15,NNW,340,1.3,3.0,81,0.00,CLR,,0.00,WeatherDisplay:10.37,2013-02-17 01:48:00,
2013-02-16 20:53:00,16.6,12.1,30.15,NNW,340,0.0,1.1,82,0.00,CLR,,0.00,WeatherDisplay:10.37,2013-02-17 01:53:00,
2013-02-16 20:58:00,16.6,12.1,30.15,NNW,336,0.1,3.5,82,0.00,CLR,,0.00,WeatherDisplay:10.37,2013-02-17 01:58:00,
2013-02-16 21:03:00,16.5,12.0,30.15,NNW,329,0.0,2.3,82,0.00,CLR,,0.00,WeatherDisplay:10.37,2013-02-17 02:03:00,
2013-02-16 21:08:00,16.4,11.9,30.15,NNW,329,0.0,0.0,82,0.00,CLR,,0.00,WeatherDisplay:10.37,2013-02-17 02:08:00,
2013-02-16 21:13:00,16.4,11.9,30.15,NNW,329,0.0,0.0,82,0.00,CLR,,0.00,WeatherDisplay:10.37,2013-02-17 02:13:00,
2013-02-16 21:18:00,16.3,11.8,30.15,NW,318,0.8,2.3,82,0.00,CLR,,0.00,WeatherDisplay:10.37,2013-02-17 02:18:00,
2013-02-16 21:23:00,16.2,11.7,30.15,NW,321,0.0,2.3,82,0.00,CLR,,0.00,WeatherDisplay:10.37,2013-02-17 02:23:00,
2013-02-16 21:28:00,16.2,11.7,30.15,WNW,296,0.4,1.1,82,0.00,CLR,,0.00,WeatherDisplay:10.37,2013-02-17 02:28:00,
2013-02-16 21:33:00,16.1,11.6,30.15,WNW,290,0.0,3.5,82,0.00,CLR,,0.00,WeatherDisplay:10.37,2013-02-17 02:33:00,
2013-02-16 21:38:00,16.0,11.5,30.15,WNW,290,0.0,0.0,82,0.00,CLR,,0.00,WeatherDisplay:10.37,2013-02-17 02:38:00,
2013-02-16 21:43:00,15.9,11.4,30.15,WNW,290,0.0,1.1,82,0.00,CLR,,0.00,WeatherDisplay:10.37,2013-02-17 02:43:00,
2013-02-16 21:48:00,15.7,11.2,30.15,WNW,288,0.0,0.0,82,0.00,CLR,,0.00,WeatherDisplay:10.37,2013-02-17 02:48:00,
2013-02-16 21:53:00,15.7,11.2,30.15,WNW,288,0.0,0.0,82,0.00,CLR,,0.00,WeatherDisplay:10.37,2013-02-17 02:53:00,
2013-02-16 21:58:00,15.6,11.1,30.15,WNW,288,0.0,0.0,82,0.00,CLR,,0.00,WeatherDisplay:10.37,2013-02-17 02:58:00,
2013-02-16 22:03:00,15.5,11.0,30.15,WNW,288,0.0,0.0,82,0.00,CLR,,0.00,WeatherDisplay:10.37,2013-02-17 03:03:00,
2013-02-16 22:08:00,15.4,10.9,30.15,WNW,288,0.0,0.0,82,0.00,CLR,,0.00,WeatherDisplay:10.37,2013-02-17 03:08:00,
2013-02-16 22:13:00,15.4,10.9,30.15,WNW,288,0.2,1.1,82,0.00,CLR,,0.00,WeatherDisplay:10.37,2013-02-17 03:13:00,
2013-02-16 22:18:00,15.3,10.8,30.15,WNW,289,0.0,1.1,82,0.00,CLR,,0.00,WeatherDisplay:10.37,2013-02-17 03:18:00,
2013-02-16 22:23:00,15.2,10.7,30.15,WNW,286,0.0,1.1,82,0.00,CLR,,0.00,WeatherDisplay:10.37,2013-02-17 03:23:00,
2013-02-16 22:28:00,15.2,10.7,30.15,WNW,287,0.2,2.3,82,0.00,CLR,,0.00,WeatherDisplay:10.37,2013-02-17 03:28:00,
2013-02-16 22:33:00,15.2,10.7,30.16,WNW,292,0.1,1.1,82,0.00,CLR,,0.00,WeatherDisplay:10.37,2013-02-17 03:33:00,
2013-02-16 22:38:00,15.2,10.4,30.15,WNW,292,0.1,1.1,81,0.00,CLR,,0.00,WeatherDisplay:10.37,2013-02-17 03:38:00,
2013-02-16 22:43:00,15.2,10.4,30.15,WNW,292,0.2,1.1,81,0.00,CLR,,0.00,WeatherDisplay:10.37,2013-02-17 03:43:00,
2013-02-16 22:48:00,15.2,10.4,30.16,WNW,292,0.0,0.0,81,0.00,CLR,,0.00,WeatherDisplay:10.37,2013-02-17 03:48:00,
2013-02-16 22:53:00,15.2,10.4,30.15,WNW,292,0.0,0.0,81,0.00,CLR,,0.00,WeatherDisplay:10.37,2013-02-17 03:53:00,
2013-02-16 22:58:00,15.2,10.4,30.15,WNW,292,0.0,0.0,81,0.00,CLR,,0.00,WeatherDisplay:10.37,2013-02-17 03:58:00,
2013-02-16 23:03:00,15.1,10.3,30.15,WNW,292,0.1,1.1,81,0.00,CLR,,0.00,WeatherDisplay:10.37,2013-02-17 04:03:00,
2013-02-16 23:08:00,15.1,10.3,30.15,WNW,292,0.1,3.0,81,0.00,CLR,,0.00,WeatherDisplay:10.37,2013-02-17 04:08:00,
2013-02-16 23:13:00,15.2,10.4,30.15,WNW,285,0.0,1.1,81,0.00,CLR,,0.00,WeatherDisplay:10.37,2013-02-17 04:13:00,
2013-02-16 23:18:00,15.3,10.2,30.15,NW,306,0.0,0.0,80,0.00,CLR,,0.00,WeatherDisplay:10.37,2013-02-17 04:18:00,
2013-02-16 23:23:00,15.3,10.2,30.15,NW,312,0.0,0.0,80,0.00,CLR,,0.00,WeatherDisplay:10.37,2013-02-17 04:23:00,
2013-02-16 23:28:00,15.3,10.2,30.15,NW,309,0.0,0.0,80,0.00,CLR,,0.00,WeatherDisplay:10.37,2013-02-17 04:28:00,
2013-02-16 23:33:00,15.2,10.1,30.15,WNW,302,0.0,0.0,80,0.00,CLR,,0.00,WeatherDisplay:10.37,2013-02-17 04:33:00,
2013-02-16 23:38:00,15.2,10.1,30.15,WNW,301,0.0,0.0,80,0.00,CLR,,0.00,WeatherDisplay:10.37,2013-02-17 04:38:00,
2013-02-16 23:43:00,15.2,10.4,30.15,WNW,294,0.0,0.0,81,0.00,CLR,,0.00,WeatherDisplay:10.37,2013-02-17 04:43:00,
2013-02-16 23:48:00,15.2,10.1,30.15,WNW,300,0.0,0.0,80,0.00,CLR,,0.00,WeatherDisplay:10.37,2013-02-17 04:48:00,
2013-02-16 23:53:00,15.1,10.0,30.15,WNW,298,0.3,2.3,80,0.00,CLR,,0.00,WeatherDisplay:10.37,2013-02-17 04:53:00,
2013-02-16 23:58:00,15.1,10.0,30.16,West,273,0.1,1.1,80,0.00,CLR,,0.00,WeatherDisplay:10.37,2013-02-17 04:58:00,